createdAt,value
2018-07-04T00:02:00.634Z,57.00
2018-07-04T00:04:39.630Z,56.70
2018-07-04T00:07:18.812Z,56.20
2018-07-04T00:09:57.749Z,57.00
2018-07-04T00:12:36.864Z,57.10
2018-07-04T00:15:15.822Z,56.90
2018-07-04T00:17:55.709Z,55.90
2018-07-04T00:20:34.741Z,55.50
2018-07-04T00:23:13.693Z,56.50
2018-07-04T00:25:52.638Z,56.50
2018-07-04T00:28:31.613Z,56.90
2018-07-04T00:31:10.578Z,56.70
2018-07-04T00:33:49.752Z,56.80
2018-07-04T00:36:29.528Z,55.50
2018-07-04T00:39:08.697Z,55.50
2018-07-04T00:41:47.769Z,56.60
2018-07-04T00:44:27.520Z,56.60
2018-07-04T00:47:06.597Z,56.60
2018-07-04T00:49:45.639Z,57.40
2018-07-04T00:52:24.764Z,57.40
2018-07-04T00:55:03.844Z,57.70
2018-07-04T00:57:43.656Z,58.20
2018-07-04T01:00:22.741Z,58.10
2018-07-04T01:03:01.691Z,58.10
2018-07-04T01:05:40.685Z,57.90
2018-07-04T01:08:19.721Z,58.30
2018-07-04T01:10:58.834Z,57.80
2018-07-04T01:13:38.585Z,58.60
2018-07-04T01:16:18.365Z,58.50
2018-07-04T01:18:57.400Z,58.50
2018-07-04T01:21:36.529Z,58.40
2018-07-04T01:24:15.529Z,59.00
2018-07-04T01:26:54.733Z,59.00
2018-07-04T01:29:33.693Z,56.80
2018-07-04T01:32:12.712Z,57.20
2018-07-04T01:34:51.738Z,57.50
2018-07-04T01:37:30.744Z,58.70
2018-07-04T01:40:09.666Z,58.40
2018-07-04T01:42:48.691Z,58.80
2018-07-04T01:45:27.583Z,59.00
2018-07-04T01:48:06.757Z,59.40
2018-07-04T01:50:45.640Z,59.80
2018-07-04T01:53:24.668Z,60.20
2018-07-04T01:56:03.565Z,60.90
2018-07-04T01:58:43.244Z,61.60
2018-07-04T02:01:22.309Z,61.70
2018-07-04T02:04:01.366Z,61.80
2018-07-04T02:06:41.222Z,63.50
2018-07-04T02:09:20.958Z,63.50
2018-07-04T02:12:00.752Z,64.00
2018-07-04T02:14:39.758Z,64.00
2018-07-04T02:17:18.966Z,62.70
2018-07-04T02:19:58.911Z,62.50
2018-07-04T02:22:38.773Z,63.60
2018-07-04T02:25:17.704Z,62.90
2018-07-04T02:27:57.570Z,62.70
2018-07-04T02:30:36.448Z,62.70
2018-07-04T02:33:15.503Z,62.30
2018-07-04T02:35:54.453Z,63.10
2018-07-04T02:38:33.719Z,62.90
2018-07-04T02:41:12.618Z,63.70
2018-07-04T02:43:51.722Z,63.80
2018-07-04T02:46:30.717Z,63.40
2018-07-04T02:49:09.750Z,62.90
2018-07-04T02:51:48.806Z,62.30
2018-07-04T02:54:27.824Z,62.90
2018-07-04T02:57:06.828Z,63.50
2018-07-04T02:59:45.831Z,63.80
2018-07-04T03:02:24.793Z,62.90
2018-07-04T03:05:03.733Z,63.40
2018-07-04T03:07:42.695Z,64.50
2018-07-04T03:10:22.476Z,65.00
2018-07-04T03:13:01.541Z,65.10
2018-07-04T03:15:40.536Z,64.60
2018-07-04T03:18:19.501Z,64.80
2018-07-04T03:20:58.614Z,65.10
2018-07-04T03:23:37.748Z,65.40
2018-07-04T03:26:16.738Z,65.40
2018-07-04T03:28:55.821Z,65.50
2018-07-04T03:31:34.811Z,65.60
2018-07-04T03:34:13.885Z,65.60
2018-07-04T03:36:52.860Z,66.00
2018-07-04T03:39:31.941Z,65.60
2018-07-04T03:42:10.865Z,66.40
2018-07-04T03:44:49.830Z,66.80
2018-07-04T03:47:29.750Z,67.40
2018-07-04T03:50:08.832Z,67.50
2018-07-04T03:52:47.801Z,66.80
2018-07-04T03:55:26.893Z,67.60
2018-07-04T03:58:05.906Z,67.40
2018-07-04T04:00:44.957Z,67.40
2018-07-04T04:03:23.995Z,67.30
2018-07-04T04:06:03.034Z,67.90
2018-07-04T04:08:42.204Z,68.50
2018-07-04T04:11:22.017Z,67.80
2018-07-04T04:14:01.058Z,67.90
2018-07-04T04:16:40.057Z,68.80
2018-07-04T04:19:19.077Z,68.80
2018-07-04T04:21:58.092Z,68.40
2018-07-04T04:24:37.073Z,69.40
2018-07-04T04:27:16.153Z,67.30
2018-07-04T04:29:55.260Z,66.80
2018-07-04T04:32:34.184Z,67.40
2018-07-04T04:35:13.133Z,68.00
2018-07-04T04:37:52.093Z,68.90
2018-07-04T04:40:31.054Z,69.60
2018-07-04T04:43:10.028Z,70.00
2018-07-04T04:45:49.916Z,69.60
2018-07-04T04:48:28.873Z,69.60
2018-07-04T04:51:07.843Z,70.20
2018-07-04T04:53:46.995Z,70.50
2018-07-04T04:56:25.931Z,71.10
2018-07-04T04:59:04.956Z,72.40
2018-07-04T05:01:43.827Z,71.80
2018-07-04T05:04:22.947Z,71.40
2018-07-04T05:07:01.814Z,72.20
2018-07-04T05:09:40.861Z,72.50
2018-07-04T05:12:19.893Z,72.00
2018-07-04T05:14:58.912Z,71.90
2018-07-04T05:17:38.453Z,69.20
2018-07-04T05:20:18.340Z,68.80
2018-07-04T05:22:57.317Z,68.60
2018-07-04T05:25:36.982Z,66.80
2018-07-04T05:28:15.941Z,66.70
2018-07-04T05:30:55.745Z,65.10
2018-07-04T05:33:35.304Z,64.20
2018-07-04T05:36:14.390Z,64.20
2018-07-04T05:38:53.321Z,64.50
2018-07-04T05:41:32.463Z,64.50
2018-07-04T05:44:11.389Z,63.30
2018-07-04T05:46:50.505Z,64.40
2018-07-04T05:49:29.468Z,64.10
2018-07-04T05:52:08.437Z,66.20
2018-07-04T05:54:47.387Z,65.80
2018-07-04T05:57:26.465Z,66.30
2018-07-04T06:00:05.669Z,66.10
2018-07-04T06:02:44.744Z,67.00
2018-07-04T06:05:23.679Z,67.40
2018-07-04T06:08:02.581Z,66.50
2018-07-04T06:10:41.454Z,66.70
2018-07-04T06:13:22.751Z,68.40
2018-07-04T06:16:01.741Z,66.30
2018-07-04T06:18:40.676Z,65.90
2018-07-04T06:21:19.632Z,64.60
2018-07-04T06:23:58.597Z,64.80
2018-07-04T06:26:38.352Z,64.10
2018-07-04T06:29:17.236Z,64.10
2018-07-04T06:31:56.237Z,64.50
2018-07-04T06:34:35.142Z,63.10
2018-07-04T06:37:14.160Z,64.90
2018-07-04T06:39:40.657Z,63.50
2018-07-04T06:42:07.199Z,61.90
2018-07-04T06:44:33.688Z,61.70
2018-07-04T06:47:00.237Z,61.50
2018-07-04T06:49:26.732Z,62.90
2018-07-04T06:51:54.021Z,62.50
2018-07-04T06:54:20.531Z,62.40
2018-07-04T06:56:47.093Z,63.60
2018-07-04T06:59:13.595Z,63.70
2018-07-04T07:01:40.909Z,64.40
2018-07-04T07:04:20.013Z,63.90
2018-07-04T07:06:59.023Z,64.80
2018-07-04T07:09:38.145Z,64.80
2018-07-04T07:12:17.374Z,64.10
2018-07-04T07:14:57.231Z,64.30
2018-07-04T07:17:36.952Z,64.80
2018-07-04T07:20:16.013Z,64.70
2018-07-04T07:22:55.069Z,65.30
2018-07-04T07:25:34.140Z,64.80
2018-07-04T07:28:13.236Z,63.90
2018-07-04T07:30:58.452Z,64.50
2018-07-04T07:33:46.433Z,64.00
2018-07-04T07:36:26.280Z,63.90
2018-07-04T07:39:05.425Z,64.10
2018-07-04T07:41:44.482Z,63.60
2018-07-04T07:44:30.182Z,63.00
2018-07-04T07:47:16.852Z,62.80
2018-07-04T07:49:55.836Z,62.90
2018-07-04T07:52:38.500Z,60.30
2018-07-04T07:55:17.573Z,60.20
2018-07-04T07:57:56.615Z,59.40
2018-07-04T08:00:35.613Z,58.30
2018-07-04T08:03:18.850Z,58.20
2018-07-04T08:05:59.835Z,58.40
2018-07-04T08:08:40.470Z,56.00
2018-07-04T08:11:24.670Z,55.90
2018-07-04T08:14:08.279Z,56.00
2018-07-04T08:16:47.861Z,55.20
2018-07-04T08:19:26.880Z,55.10
2018-07-04T08:22:10.451Z,53.60
2018-07-04T08:24:59.973Z,52.70
2018-07-04T08:27:48.908Z,51.80
2018-07-04T08:33:30.403Z,51.60
2018-07-04T08:36:15.678Z,49.90
2018-07-04T08:38:57.124Z,49.20
2018-07-04T08:41:37.929Z,49.70
2018-07-04T08:44:19.727Z,49.40
2018-07-04T08:47:00.029Z,50.50
2018-07-04T08:49:39.605Z,50.30
2018-07-04T08:52:22.267Z,50.10
2018-07-04T08:55:05.040Z,50.60
2018-07-04T08:57:49.853Z,49.90
2018-07-04T09:00:28.984Z,50.20
2018-07-04T09:03:08.983Z,50.30
2018-07-04T09:05:52.366Z,50.20
2018-07-04T09:08:40.438Z,50.60
2018-07-04T09:11:22.069Z,50.40
2018-07-04T09:14:05.526Z,47.70
2018-07-04T09:16:44.606Z,46.80
2018-07-04T09:19:32.349Z,48.90
2018-07-04T09:22:16.550Z,49.40
2018-07-04T09:24:55.984Z,50.60
2018-07-04T09:27:34.974Z,50.80
2018-07-04T09:30:17.552Z,51.50
2018-07-04T09:32:59.611Z,51.00
2018-07-04T09:35:39.057Z,51.50
2018-07-04T09:38:24.801Z,51.30
2018-07-04T09:44:03.555Z,51.70
2018-07-04T09:46:47.856Z,50.90
2018-07-04T09:49:27.105Z,50.80
2018-07-04T09:52:15.290Z,49.50
2018-07-04T09:55:02.481Z,49.10
2018-07-04T09:57:46.380Z,48.70
2018-07-04T10:00:34.230Z,47.80
2018-07-04T10:03:21.764Z,48.90
2018-07-04T10:06:10.572Z,46.70
2018-07-04T10:08:50.445Z,47.60
2018-07-04T10:11:29.984Z,46.00
2018-07-04T10:14:09.275Z,46.20
2018-07-04T10:16:48.924Z,45.50
2018-07-04T10:19:28.752Z,45.40
2018-07-04T10:22:07.853Z,45.40
2018-07-04T10:24:46.975Z,45.80
2018-07-04T10:27:25.982Z,45.10
2018-07-04T10:30:05.111Z,46.50
2018-07-04T10:32:44.207Z,46.80
2018-07-04T10:35:23.614Z,46.80
2018-07-04T10:38:02.864Z,46.00
2018-07-04T10:40:49.503Z,45.80
2018-07-04T10:43:33.276Z,45.20
2018-07-04T10:46:13.326Z,45.20
2018-07-04T10:48:57.109Z,46.20
2018-07-04T10:51:36.648Z,45.40
2018-07-04T10:54:16.071Z,46.70
2018-07-04T10:57:00.987Z,46.20
2018-07-04T10:59:41.008Z,45.50
2018-07-04T11:02:20.010Z,45.80
2018-07-04T11:05:01.913Z,45.70
2018-07-04T11:07:45.515Z,44.30
2018-07-04T11:10:31.022Z,45.30
2018-07-04T11:13:18.694Z,45.20
2018-07-04T11:16:06.514Z,45.20
2018-07-04T11:18:50.189Z,45.20
2018-07-04T11:21:33.007Z,45.80
2018-07-04T11:24:17.168Z,45.80
2018-07-04T11:27:01.032Z,45.60
2018-07-04T11:29:46.664Z,45.50
2018-07-04T11:32:28.292Z,45.90
2018-07-04T11:35:07.313Z,46.40
2018-07-04T11:37:47.254Z,45.20
2018-07-04T11:40:32.430Z,46.50
2018-07-04T11:43:14.150Z,46.70
2018-07-04T11:45:54.305Z,46.70
2018-07-04T11:48:21.124Z,45.70
2018-07-04T11:50:48.434Z,45.10
2018-07-04T11:53:15.028Z,45.20
2018-07-04T11:55:41.551Z,44.90
2018-07-04T11:58:08.805Z,45.40
2018-07-04T12:00:36.124Z,46.80
2018-07-04T12:03:13.000Z,46.80
2018-07-04T12:05:52.083Z,46.40
2018-07-04T12:08:18.625Z,46.80
2018-07-04T12:10:45.639Z,44.80
2018-07-04T12:13:14.775Z,45.00
2018-07-04T12:15:42.457Z,45.10
2018-07-04T12:18:13.122Z,44.40
2018-07-04T12:20:45.338Z,44.50
2018-07-04T12:23:19.021Z,45.20
2018-07-04T12:28:38.553Z,44.20
2018-07-04T12:31:12.443Z,43.90
2018-07-04T12:33:49.216Z,44.20
2018-07-04T12:36:17.513Z,43.00
2018-07-04T12:38:45.537Z,42.90
2018-07-04T12:41:21.583Z,43.80
2018-07-04T12:43:54.062Z,43.70
2018-07-04T12:46:25.180Z,44.10
2018-07-04T12:49:00.094Z,43.40
2018-07-04T12:51:32.091Z,43.50
2018-07-04T12:54:03.301Z,43.00
2018-07-04T12:56:42.609Z,42.90
2018-07-04T12:59:22.232Z,43.10
2018-07-04T13:04:51.839Z,44.20
2018-07-04T13:07:30.983Z,43.50
2018-07-04T13:10:09.970Z,43.50
2018-07-04T13:12:49.754Z,43.60
2018-07-04T13:15:29.693Z,43.70
2018-07-04T13:18:08.936Z,44.50
2018-07-04T13:20:47.966Z,43.90
2018-07-04T13:23:27.009Z,44.80
2018-07-04T13:26:05.969Z,45.00
2018-07-04T13:28:45.065Z,46.00
2018-07-04T13:31:23.897Z,44.80
2018-07-04T13:34:02.977Z,45.60
2018-07-04T13:36:41.884Z,50.00
2018-07-04T13:39:20.814Z,53.10
2018-07-04T13:41:59.767Z,54.90
2018-07-04T13:47:38.261Z,57.10
2018-07-04T13:50:26.925Z,58.10
2018-07-04T13:53:15.570Z,58.10
2018-07-04T13:55:55.539Z,58.10
2018-07-04T13:58:34.552Z,58.50
2018-07-04T14:01:14.372Z,59.70
2018-07-04T14:03:53.347Z,59.70
2018-07-04T14:06:32.293Z,60.10
2018-07-04T14:09:11.406Z,60.00
2018-07-04T14:11:50.361Z,60.90
2018-07-04T14:14:29.423Z,60.90
2018-07-04T14:17:08.986Z,61.30
2018-07-04T14:19:48.797Z,62.00
2018-07-04T14:22:30.075Z,61.50
2018-07-04T14:25:14.759Z,61.60
2018-07-04T14:28:00.710Z,61.30
2018-07-04T14:30:45.861Z,62.00
2018-07-04T14:33:39.527Z,61.20
2018-07-04T14:39:15.966Z,61.00
2018-07-04T14:42:01.051Z,61.30
2018-07-04T14:44:44.182Z,61.10
2018-07-04T14:47:28.154Z,61.30
2018-07-04T14:50:14.466Z,61.10
2018-07-04T14:53:00.954Z,61.10
2018-07-04T14:55:46.378Z,60.90
2018-07-04T14:58:27.204Z,60.70
2018-07-04T15:01:06.268Z,60.80
2018-07-04T15:03:45.254Z,60.90
2018-07-04T15:06:26.690Z,61.00
2018-07-04T15:09:14.808Z,60.90
2018-07-04T15:12:00.428Z,61.20
2018-07-04T15:14:50.052Z,61.20
2018-07-04T15:17:40.577Z,61.80
2018-07-04T15:20:30.133Z,60.70
2018-07-04T15:23:16.666Z,60.70
2018-07-04T15:26:02.281Z,60.10
2018-07-04T15:28:43.040Z,60.20
2018-07-04T15:31:22.081Z,60.10
2018-07-04T15:34:07.083Z,59.90
2018-07-04T15:36:55.123Z,59.80
2018-07-04T15:42:31.698Z,59.80
2018-07-04T15:45:21.394Z,58.40
2018-07-04T15:48:04.720Z,58.30
2018-07-04T15:50:47.644Z,59.00
2018-07-04T15:53:34.253Z,58.70
2018-07-04T15:56:22.788Z,58.60
2018-07-04T15:59:06.389Z,58.00
2018-07-04T16:01:48.569Z,58.10
2018-07-04T16:04:34.436Z,58.10
2018-07-04T16:07:21.706Z,58.50
2018-07-04T16:10:10.209Z,58.50
2018-07-04T16:15:46.599Z,58.70
2018-07-04T16:18:34.862Z,59.70
2018-07-04T16:24:10.309Z,60.20
2018-07-04T16:26:59.550Z,60.80
2018-07-04T16:29:39.192Z,60.90
2018-07-04T16:32:19.937Z,61.40
2018-07-04T16:34:59.096Z,61.90
2018-07-04T16:37:38.021Z,62.50
2018-07-04T16:40:17.028Z,62.70
2018-07-04T16:42:56.985Z,62.50
2018-07-04T16:45:36.633Z,62.60
2018-07-04T16:48:15.697Z,62.70
2018-07-04T16:50:55.393Z,63.10
2018-07-04T16:53:36.408Z,63.60
2018-07-04T16:56:17.389Z,63.90
2018-07-04T16:58:59.915Z,65.50
2018-07-04T17:01:39.907Z,66.40
2018-07-04T17:04:18.968Z,66.30
2018-07-04T17:07:07.578Z,67.00
2018-07-04T17:09:55.537Z,67.80
2018-07-04T17:12:44.700Z,68.70
2018-07-04T17:18:24.220Z,69.10
2018-07-04T17:21:10.718Z,70.20
2018-07-04T17:23:50.414Z,71.20
2018-07-04T17:26:31.211Z,71.00
2018-07-04T17:29:18.747Z,70.90
2018-07-04T17:32:08.459Z,71.50
2018-07-04T17:34:55.373Z,71.90
2018-07-04T17:37:44.446Z,72.20
2018-07-04T17:40:31.344Z,72.40
2018-07-04T17:46:02.332Z,72.80
2018-07-04T17:48:41.327Z,73.10
2018-07-04T17:51:21.021Z,72.70
2018-07-04T17:54:01.298Z,72.70
2018-07-04T17:56:40.240Z,72.80
2018-07-04T17:59:19.276Z,72.70
2018-07-04T18:01:58.366Z,72.30
2018-07-04T18:04:37.405Z,73.30
2018-07-04T18:07:16.438Z,72.80
2018-07-04T18:10:02.339Z,73.00
2018-07-04T18:12:42.601Z,73.00
2018-07-04T18:15:25.146Z,74.30
2018-07-04T18:18:09.520Z,73.50
2018-07-04T18:20:57.675Z,73.50
2018-07-04T18:23:42.534Z,73.60
2018-07-04T18:26:26.977Z,73.90
2018-07-04T18:29:12.977Z,74.90
2018-07-04T18:32:00.751Z,77.00
2018-07-04T18:34:44.496Z,77.00
2018-07-04T18:37:33.424Z,78.40
2018-07-04T18:40:20.909Z,79.70
2018-07-04T18:43:10.613Z,79.30
2018-07-04T18:45:56.308Z,80.70
2018-07-04T18:48:43.943Z,81.60
2018-07-04T18:51:34.278Z,83.40
2018-07-04T18:54:22.558Z,83.30
2018-07-04T18:57:10.811Z,84.10
2018-07-04T18:59:58.041Z,84.70
2018-07-04T19:02:46.903Z,85.20
2018-07-04T19:05:33.807Z,86.40
2018-07-04T19:08:21.241Z,87.70
2018-07-04T19:11:09.304Z,89.30
2018-07-04T19:13:59.333Z,89.70
2018-07-04T19:16:48.003Z,90.20
2018-07-04T19:19:36.527Z,90.70
2018-07-04T19:22:25.696Z,91.00
2018-07-04T19:25:13.917Z,91.70
2018-07-04T19:28:03.252Z,92.00
2018-07-04T19:30:49.729Z,92.70
2018-07-04T19:33:38.723Z,93.00
2018-07-04T19:36:25.130Z,93.50
2018-07-04T19:39:15.556Z,94.00
2018-07-04T19:42:06.217Z,94.80
2018-07-04T19:44:55.895Z,94.80
2018-07-04T19:47:43.349Z,95.30
2018-07-04T19:50:31.469Z,95.80
2018-07-04T19:53:21.052Z,96.50
2018-07-04T19:56:08.987Z,96.90
2018-07-04T19:58:55.921Z,96.90
2018-07-04T20:01:42.418Z,97.20
2018-07-04T20:04:30.566Z,97.70
2018-07-04T20:07:17.670Z,97.90
2018-07-04T20:10:04.474Z,98.30
2018-07-04T20:12:52.796Z,98.40
2018-07-04T20:15:40.042Z,99.30
2018-07-04T20:18:27.265Z,99.40
2018-07-04T20:21:13.694Z,99.40
2018-07-04T20:23:59.646Z,99.90
2018-07-04T20:26:45.582Z,99.90
2018-07-04T20:29:31.912Z,99.90
2018-07-04T20:32:17.972Z,99.90
2018-07-04T20:34:59.225Z,99.90
2018-07-04T20:37:38.396Z,99.90
2018-07-04T20:40:17.623Z,99.90
2018-07-04T20:42:56.900Z,99.90
2018-07-04T20:45:36.208Z,99.90
2018-07-04T20:48:15.259Z,99.90
2018-07-04T20:50:55.345Z,99.90
2018-07-04T20:53:42.890Z,99.90
2018-07-04T20:59:13.873Z,99.90
2018-07-04T21:01:52.929Z,99.90
2018-07-04T21:07:27.459Z,99.90
2018-07-04T21:10:15.860Z,99.90
2018-07-04T21:13:06.469Z,99.90
2018-07-04T21:15:54.532Z,99.90
2018-07-04T21:18:35.926Z,99.90
2018-07-04T21:21:15.272Z,99.90
2018-07-04T21:23:55.289Z,99.90
2018-07-04T21:26:42.252Z,99.90
2018-07-04T21:29:30.939Z,99.90
2018-07-04T21:32:19.995Z,99.90
2018-07-04T21:35:09.497Z,99.90
2018-07-04T21:37:50.286Z,99.90
2018-07-04T21:40:29.253Z,99.90
2018-07-04T21:43:08.340Z,99.90
2018-07-04T21:45:49.932Z,99.90
2018-07-04T21:48:35.306Z,99.90
2018-07-04T21:51:16.201Z,99.90
2018-07-04T21:54:04.067Z,99.90
2018-07-04T21:56:47.179Z,99.90
2018-07-04T21:59:26.547Z,99.90
2018-07-04T22:02:06.356Z,99.90
2018-07-04T22:04:45.317Z,99.90
2018-07-04T22:07:24.360Z,99.90
2018-07-04T22:10:04.166Z,99.90
2018-07-04T22:15:34.704Z,99.90
2018-07-04T22:18:21.595Z,99.90
2018-07-04T22:21:01.332Z,99.90
2018-07-04T22:23:40.320Z,99.90
2018-07-04T22:26:27.462Z,99.90
2018-07-04T22:29:16.410Z,99.90
2018-07-04T22:31:56.208Z,99.90
2018-07-04T22:34:35.270Z,99.90
2018-07-04T22:37:22.027Z,99.90
2018-07-04T22:40:01.128Z,99.90
2018-07-04T22:42:40.916Z,99.90
2018-07-04T22:45:19.965Z,99.90
2018-07-04T22:47:59.848Z,99.90
2018-07-04T22:50:38.921Z,99.90
2018-07-04T22:53:17.899Z,99.90
2018-07-04T22:55:56.996Z,99.90
2018-07-04T22:58:36.037Z,99.90
2018-07-04T23:01:15.196Z,99.90
2018-07-04T23:03:54.206Z,99.90
2018-07-04T23:06:33.359Z,99.90
2018-07-04T23:09:12.421Z,99.90
2018-07-04T23:11:52.176Z,99.90
2018-07-04T23:14:31.930Z,99.90
2018-07-04T23:17:18.798Z,99.90
2018-07-04T23:20:07.306Z,99.90
2018-07-04T23:22:56.770Z,99.90
2018-07-04T23:28:26.654Z,99.90
2018-07-04T23:31:05.783Z,99.90
2018-07-04T23:33:44.887Z,99.90
2018-07-04T23:36:23.940Z,99.90
2018-07-04T23:39:02.925Z,99.90
2018-07-04T23:41:41.947Z,99.90
2018-07-04T23:44:21.763Z,99.90
2018-07-04T23:47:00.853Z,99.90
2018-07-04T23:49:39.829Z,99.90
2018-07-04T23:52:18.885Z,99.90
2018-07-04T23:54:57.871Z,99.90
2018-07-04T23:57:36.837Z,99.90
